createdAt,value
2018-06-30T00:19:06.024Z,1.70
2018-06-30T00:21:44.967Z,2.58
2018-06-30T00:24:27.004Z,2.45
2018-06-30T00:27:03.675Z,2.50
2018-06-30T00:29:42.893Z,2.35
2018-06-30T00:32:20.267Z,2.95
2018-06-30T00:34:59.127Z,2.20
2018-06-30T00:37:46.025Z,2.75
2018-06-30T00:40:20.848Z,2.42
2018-06-30T00:43:14.025Z,2.80
2018-06-30T00:45:58.111Z,2.80
2018-06-30T00:48:58.147Z,2.58
2018-06-30T00:58:13.641Z,3.00
2018-06-30T01:06:32.421Z,3.08
2018-06-30T01:09:02.707Z,3.08
2018-06-30T01:11:33.112Z,4.15
2018-06-30T01:14:01.992Z,3.30
2018-06-30T01:16:31.001Z,2.62
2018-06-30T01:19:00.056Z,2.75
2018-06-30T01:21:29.145Z,2.98
2018-06-30T01:23:58.162Z,3.60
2018-06-30T01:26:26.400Z,2.92
2018-06-30T01:28:54.547Z,3.47
2018-06-30T01:31:23.329Z,3.80
2018-06-30T01:33:52.061Z,2.80
2018-06-30T01:36:20.779Z,3.77
2018-06-30T01:38:49.080Z,3.05
2018-06-30T01:41:17.360Z,3.30
2018-06-30T01:43:45.866Z,2.70
2018-06-30T01:46:15.744Z,3.20
2018-06-30T01:48:44.164Z,2.80
2018-06-30T01:51:12.560Z,3.00
2018-06-30T01:53:41.313Z,3.40
2018-06-30T01:56:09.941Z,2.60
2018-06-30T01:58:38.552Z,3.52
2018-06-30T02:01:07.188Z,3.05
2018-06-30T02:03:35.634Z,3.05
2018-06-30T02:06:05.189Z,3.30
2018-06-30T02:08:33.788Z,2.83
2018-06-30T02:11:02.652Z,3.20
2018-06-30T02:13:31.373Z,3.50
2018-06-30T02:16:00.093Z,3.80
2018-06-30T02:18:28.849Z,3.10
2018-06-30T02:29:30.933Z,3.40
2018-06-30T02:31:59.655Z,3.50
2018-06-30T02:34:27.980Z,3.42
2018-06-30T02:36:56.186Z,3.00
2018-06-30T02:39:24.354Z,3.10
2018-06-30T02:41:52.645Z,3.30
2018-06-30T02:44:21.060Z,3.05
2018-06-30T02:46:49.892Z,3.05
2018-06-30T02:49:18.213Z,3.35
2018-06-30T02:51:46.421Z,2.47
2018-06-30T02:54:14.680Z,2.67
2018-06-30T02:56:42.872Z,2.95
2018-06-30T02:59:11.135Z,2.05
2018-06-30T03:01:39.359Z,2.22
2018-06-30T03:04:07.781Z,2.02
2018-06-30T03:06:36.082Z,1.90
2018-06-30T03:09:07.179Z,2.10
2018-06-30T03:11:35.424Z,2.15
2018-06-30T03:14:04.868Z,1.60
2018-06-30T03:16:34.462Z,1.42
2018-06-30T03:19:02.924Z,1.32
2018-06-30T03:21:31.272Z,1.52
2018-06-30T03:23:59.593Z,1.80
2018-06-30T03:26:28.067Z,1.50
2018-06-30T03:29:00.857Z,1.47
2018-06-30T03:31:33.678Z,1.57
2018-06-30T03:34:08.394Z,1.25
2018-06-30T03:36:43.366Z,1.50
2018-06-30T03:39:23.552Z,1.72
2018-06-30T03:42:12.194Z,1.40
2018-06-30T03:49:42.236Z,1.07
2018-06-30T03:53:31.805Z,1.10
2018-06-30T04:12:13.715Z,1.10
2018-06-30T04:14:42.012Z,1.30
2018-06-30T04:17:10.205Z,0.80
2018-06-30T04:19:38.404Z,0.95
2018-06-30T04:22:06.916Z,1.10
2018-06-30T04:24:35.028Z,0.80
2018-06-30T04:27:03.191Z,1.30
2018-06-30T04:29:31.370Z,1.10
2018-06-30T04:31:59.549Z,1.02
2018-06-30T04:34:27.770Z,1.05
2018-06-30T04:36:55.980Z,1.25
2018-06-30T04:39:24.255Z,0.72
2018-06-30T04:41:52.490Z,0.70
2018-06-30T04:44:20.773Z,1.22
2018-06-30T04:46:49.057Z,0.80
2018-06-30T04:49:17.329Z,1.22
2018-06-30T04:51:45.508Z,0.80
2018-06-30T04:54:13.764Z,0.90
2018-06-30T04:56:42.112Z,0.95
2018-06-30T04:59:10.489Z,0.90
2018-06-30T05:01:38.773Z,0.90
2018-06-30T05:04:07.262Z,1.10
2018-06-30T05:06:38.454Z,1.10
2018-06-30T05:09:10.200Z,0.88
2018-06-30T05:11:41.103Z,0.70
2018-06-30T05:14:11.305Z,0.85
2018-06-30T05:16:41.435Z,0.60
2018-06-30T05:19:20.617Z,1.07
2018-06-30T05:21:52.489Z,0.72
2018-06-30T05:24:20.686Z,1.00
2018-06-30T05:26:48.882Z,0.80
2018-06-30T05:29:17.126Z,0.50
2018-06-30T05:31:45.352Z,0.98
2018-06-30T05:34:13.504Z,1.10
2018-06-30T05:36:41.701Z,0.95
2018-06-30T05:39:10.869Z,0.50
2018-06-30T05:41:39.584Z,0.93
2018-06-30T05:44:07.828Z,0.70
2018-06-30T05:46:36.372Z,0.98
2018-06-30T05:49:04.680Z,0.90
2018-06-30T05:51:33.341Z,0.80
2018-06-30T05:54:01.549Z,0.62
2018-06-30T05:56:29.720Z,0.60
2018-06-30T05:58:57.908Z,0.70
2018-06-30T06:01:26.093Z,0.47
2018-06-30T06:03:54.249Z,0.60
2018-06-30T06:06:22.505Z,0.68
2018-06-30T06:08:50.685Z,0.65
2018-06-30T06:11:18.840Z,0.90
2018-06-30T06:13:47.027Z,0.68
2018-06-30T06:16:15.229Z,0.70
2018-06-30T06:18:43.428Z,0.60
2018-06-30T06:21:11.654Z,0.68
2018-06-30T06:23:39.772Z,0.72
2018-06-30T06:26:08.000Z,0.60
2018-06-30T06:28:36.196Z,0.70
2018-06-30T06:31:04.502Z,0.62
2018-06-30T06:33:32.746Z,0.60
2018-06-30T06:36:00.929Z,0.55
2018-06-30T06:38:29.095Z,0.68
2018-06-30T06:40:57.281Z,1.00
2018-06-30T06:43:25.558Z,0.85
2018-06-30T06:45:53.740Z,0.98
2018-06-30T06:48:21.999Z,0.60
2018-06-30T06:50:50.224Z,0.70
2018-06-30T06:53:18.440Z,1.82
2018-06-30T06:55:46.876Z,1.40
2018-06-30T06:58:15.046Z,1.00
2018-06-30T07:00:43.329Z,0.80
2018-06-30T07:03:11.690Z,0.60
2018-06-30T07:05:39.896Z,0.70
2018-06-30T07:08:08.094Z,0.53
2018-06-30T07:10:36.372Z,0.60
2018-06-30T07:13:04.703Z,0.50
2018-06-30T07:15:32.841Z,0.40
2018-06-30T07:18:01.112Z,0.60
2018-06-30T07:20:29.382Z,0.23
2018-06-30T07:22:57.660Z,0.50
2018-06-30T07:25:25.921Z,0.80
2018-06-30T07:27:54.148Z,0.50
2018-06-30T07:30:22.382Z,0.60
2018-06-30T07:32:50.786Z,0.50
2018-06-30T07:35:19.458Z,0.53
2018-06-30T07:37:47.825Z,0.77
2018-06-30T07:40:16.128Z,0.47
2018-06-30T07:42:46.336Z,1.20
2018-06-30T07:45:14.519Z,0.83
2018-06-30T07:47:42.763Z,0.60
2018-06-30T07:50:11.004Z,0.90
2018-06-30T07:52:39.196Z,0.70
2018-06-30T07:55:07.405Z,0.50
2018-06-30T07:57:35.648Z,0.70
2018-06-30T08:00:04.382Z,0.80
2018-06-30T08:02:32.608Z,0.73
2018-06-30T08:05:00.900Z,0.60
2018-06-30T08:07:29.236Z,0.60
2018-06-30T08:09:57.533Z,0.50
2018-06-30T08:12:25.787Z,0.50
2018-06-30T08:14:53.985Z,0.47
2018-06-30T08:17:22.232Z,0.40
2018-06-30T08:19:50.438Z,0.50
2018-06-30T08:22:18.756Z,0.80
2018-06-30T08:24:47.040Z,0.70
2018-06-30T08:27:17.410Z,0.80
2018-06-30T08:29:45.617Z,1.07
2018-06-30T08:32:13.808Z,0.47
2018-06-30T08:34:41.987Z,0.90
2018-06-30T08:37:10.179Z,0.50
2018-06-30T08:39:38.389Z,0.93
2018-06-30T08:42:06.802Z,0.60
2018-06-30T08:44:35.298Z,0.60
2018-06-30T08:47:03.524Z,0.80
2018-06-30T08:49:32.008Z,0.57
2018-06-30T08:52:02.073Z,0.50
2018-06-30T08:54:31.277Z,0.70
2018-06-30T08:56:59.630Z,1.03
2018-06-30T08:59:28.212Z,0.50
2018-06-30T09:01:56.956Z,0.70
2018-06-30T09:04:25.329Z,0.60
2018-06-30T09:06:54.226Z,0.80
2018-06-30T09:09:22.637Z,0.80
2018-06-30T09:11:51.690Z,0.73
2018-06-30T09:14:20.824Z,1.00
2018-06-30T09:16:51.239Z,1.10
2018-06-30T09:19:19.903Z,0.70
2018-06-30T09:21:48.907Z,1.33
2018-06-30T09:24:17.258Z,1.70
2018-06-30T09:26:50.712Z,0.80
2018-06-30T09:29:19.303Z,0.73
2018-06-30T09:31:48.310Z,0.60
2018-06-30T09:34:26.369Z,0.60
2018-06-30T09:36:54.599Z,0.67
2018-06-30T09:39:22.794Z,0.70
2018-06-30T09:41:51.001Z,1.07
2018-06-30T09:44:19.275Z,0.77
2018-06-30T09:46:47.566Z,1.00
2018-06-30T09:49:15.809Z,0.70
2018-06-30T09:51:44.047Z,0.60
2018-06-30T09:54:12.291Z,1.20
2018-06-30T09:56:40.545Z,1.00
2018-06-30T09:59:08.686Z,0.83
2018-06-30T10:01:37.036Z,0.83
2018-06-30T10:04:05.311Z,0.80
2018-06-30T10:06:33.522Z,0.80
2018-06-30T10:09:01.774Z,0.70
2018-06-30T10:11:29.921Z,0.90
2018-06-30T10:13:58.104Z,0.90
2018-06-30T10:16:26.307Z,1.00
2018-06-30T10:18:54.556Z,1.13
2018-06-30T10:21:22.769Z,0.83
2018-06-30T10:23:50.986Z,1.20
2018-06-30T10:26:19.281Z,0.60
2018-06-30T10:28:47.504Z,0.80
2018-06-30T10:31:15.766Z,0.67
2018-06-30T10:33:43.891Z,0.70
2018-06-30T10:36:12.180Z,0.63
2018-06-30T10:38:40.397Z,0.90
2018-06-30T10:41:08.673Z,0.90
2018-06-30T10:43:36.844Z,0.80
2018-06-30T10:46:05.205Z,0.70
2018-06-30T10:48:33.489Z,1.37
2018-06-30T10:51:01.738Z,0.60
2018-06-30T10:53:30.025Z,0.80
2018-06-30T10:55:58.287Z,0.70
2018-06-30T10:58:26.492Z,1.03
2018-06-30T11:00:54.968Z,0.90
2018-06-30T11:03:23.223Z,0.60
2018-06-30T11:05:51.411Z,1.53
2018-06-30T11:08:19.764Z,0.70
2018-06-30T11:10:48.996Z,0.63
2018-06-30T11:13:17.177Z,0.80
2018-06-30T11:15:45.438Z,0.97
2018-06-30T11:18:13.675Z,1.00
2018-06-30T11:20:41.905Z,0.97
2018-06-30T11:23:10.121Z,1.00
2018-06-30T11:25:38.456Z,0.90
2018-06-30T11:28:06.795Z,0.93
2018-06-30T11:30:34.990Z,0.80
2018-06-30T11:33:03.148Z,0.90
2018-06-30T11:35:33.448Z,0.90
2018-06-30T11:38:01.635Z,1.00
2018-06-30T11:40:29.850Z,1.07
2018-06-30T11:42:58.215Z,0.70
2018-06-30T11:45:26.423Z,0.80
2018-06-30T11:47:54.639Z,1.20
2018-06-30T11:50:22.837Z,1.00
2018-06-30T11:52:51.211Z,0.80
2018-06-30T11:55:19.529Z,0.80
2018-06-30T11:57:47.771Z,0.90
2018-06-30T12:00:15.969Z,0.77
2018-06-30T12:02:44.192Z,1.10
2018-06-30T12:05:12.398Z,0.80
2018-06-30T12:07:40.624Z,1.27
2018-06-30T12:10:08.868Z,0.73
2018-06-30T12:12:37.180Z,0.70
2018-06-30T12:15:05.533Z,0.90
2018-06-30T12:17:33.736Z,0.80
2018-06-30T12:20:01.974Z,0.93
2018-06-30T12:22:30.149Z,0.87
2018-06-30T12:24:58.473Z,0.70
2018-06-30T12:27:26.696Z,0.60
2018-06-30T12:29:54.920Z,0.60
2018-06-30T12:32:23.175Z,1.10
2018-06-30T12:34:51.377Z,0.77
2018-06-30T12:37:19.584Z,1.17
2018-06-30T12:39:47.789Z,0.73
2018-06-30T12:42:16.022Z,0.90
2018-06-30T12:44:44.212Z,1.33
2018-06-30T12:47:12.416Z,0.80
2018-06-30T12:49:40.564Z,0.83
2018-06-30T12:52:08.819Z,1.40
2018-06-30T12:54:37.268Z,1.27
2018-06-30T12:57:05.410Z,1.20
2018-06-30T12:59:33.625Z,0.83
2018-06-30T13:02:01.801Z,0.80
2018-06-30T13:04:30.025Z,1.00
2018-06-30T13:06:58.321Z,1.50
2018-06-30T13:09:26.504Z,0.90
2018-06-30T13:11:54.752Z,0.80
2018-06-30T13:14:22.944Z,0.80
2018-06-30T13:16:51.164Z,1.40
2018-06-30T13:19:19.404Z,1.37
2018-06-30T13:21:47.652Z,5.80
2018-06-30T13:24:15.912Z,2.20
2018-06-30T13:26:44.149Z,1.37
2018-06-30T13:29:12.414Z,1.13
2018-06-30T13:31:40.633Z,0.87
2018-06-30T13:34:08.980Z,0.70
2018-06-30T13:36:37.257Z,1.00
2018-06-30T13:39:08.900Z,0.93
2018-06-30T13:41:37.119Z,0.70
2018-06-30T13:44:05.722Z,0.93
2018-06-30T13:46:33.939Z,0.67
2018-06-30T13:49:02.140Z,0.67
2018-06-30T13:51:30.346Z,0.67
2018-06-30T13:53:58.613Z,1.00
2018-06-30T13:56:26.804Z,0.80
2018-06-30T13:58:55.014Z,0.90
2018-06-30T14:01:23.275Z,0.67
2018-06-30T14:03:51.510Z,0.60
2018-06-30T14:06:19.707Z,0.70
2018-06-30T14:08:47.936Z,0.90
2018-06-30T14:11:16.133Z,0.80
2018-06-30T14:13:44.349Z,0.80
2018-06-30T14:16:12.559Z,0.50
2018-06-30T14:18:40.739Z,0.60
2018-06-30T14:21:09.013Z,1.07
2018-06-30T14:23:37.229Z,1.13
2018-06-30T14:26:05.487Z,1.20
2018-06-30T14:28:33.713Z,1.20
2018-06-30T14:31:01.920Z,1.23
2018-06-30T14:33:30.158Z,0.87
2018-06-30T14:35:58.362Z,9.50
2018-06-30T14:38:27.295Z,16.30
2018-06-30T14:40:55.665Z,3.90
2018-06-30T14:43:23.872Z,9.10
2018-06-30T14:45:52.096Z,5.53
2018-06-30T14:48:20.314Z,5.87
2018-06-30T14:50:48.537Z,4.10
2018-06-30T14:53:16.800Z,11.50
2018-06-30T14:55:44.984Z,12.43
2018-06-30T14:58:13.186Z,4.93
2018-06-30T15:00:41.468Z,3.10
2018-06-30T15:03:09.646Z,2.50
2018-06-30T15:05:37.860Z,2.60
2018-06-30T15:08:06.101Z,2.63
2018-06-30T15:10:34.372Z,5.90
2018-06-30T15:13:02.653Z,1.67
2018-06-30T15:15:30.927Z,4.63
2018-06-30T15:17:59.149Z,2.03
2018-06-30T15:20:27.417Z,1.73
2018-06-30T15:22:55.671Z,1.20
2018-06-30T15:25:23.896Z,1.93
2018-06-30T15:27:52.106Z,1.77
2018-06-30T15:30:20.424Z,1.87
2018-06-30T15:32:48.651Z,1.20
2018-06-30T15:35:16.864Z,1.23
2018-06-30T15:37:45.020Z,1.40
2018-06-30T15:40:13.222Z,2.73
2018-06-30T15:42:41.388Z,1.87
2018-06-30T15:45:10.144Z,1.60
2018-06-30T15:47:38.708Z,2.20
2018-06-30T15:50:07.221Z,1.50
2018-06-30T15:52:35.382Z,1.70
2018-06-30T15:55:04.699Z,2.37
2018-06-30T15:57:34.099Z,1.70
2018-06-30T16:00:02.283Z,1.70
2018-06-30T16:02:30.437Z,1.37
2018-06-30T16:04:58.692Z,2.27
2018-06-30T16:07:26.868Z,1.50
2018-06-30T16:09:55.144Z,1.53
2018-06-30T16:12:23.359Z,1.20
2018-06-30T16:14:51.586Z,1.07
2018-06-30T16:17:19.727Z,1.20
2018-06-30T16:19:47.922Z,0.90
2018-06-30T16:22:16.076Z,1.10
2018-06-30T16:24:44.328Z,1.53
2018-06-30T16:27:12.525Z,1.07
2018-06-30T16:29:40.659Z,1.20
2018-06-30T16:32:08.816Z,1.33
2018-06-30T16:34:36.994Z,1.20
2018-06-30T16:37:05.235Z,0.87
2018-06-30T16:39:33.393Z,1.27
2018-06-30T16:42:01.606Z,0.70
2018-06-30T16:44:29.787Z,0.77
2018-06-30T16:46:57.968Z,0.60
2018-06-30T16:49:26.147Z,1.00
2018-06-30T16:51:55.128Z,0.60
2018-06-30T16:54:23.398Z,0.90
2018-06-30T16:56:51.724Z,0.93
2018-06-30T16:59:19.934Z,0.63
2018-06-30T17:01:48.096Z,0.73
2018-06-30T17:04:16.324Z,1.00
2018-06-30T17:06:44.588Z,0.80
2018-06-30T17:09:14.456Z,0.87
2018-06-30T17:11:42.757Z,0.80
2018-06-30T17:14:10.996Z,0.60
2018-06-30T17:16:39.169Z,0.80
2018-06-30T17:19:07.364Z,0.77
2018-06-30T17:21:35.570Z,1.37
2018-06-30T17:24:04.228Z,0.90
2018-06-30T17:26:32.514Z,1.00
2018-06-30T17:29:00.876Z,0.63
2018-06-30T17:31:29.169Z,1.10
2018-06-30T17:33:59.654Z,0.93
2018-06-30T17:36:27.874Z,0.67
2018-06-30T17:38:56.093Z,1.10
2018-06-30T17:41:24.295Z,1.07
2018-06-30T17:43:52.690Z,0.70
2018-06-30T17:46:21.092Z,0.80
2018-06-30T17:48:49.362Z,0.83
2018-06-30T17:51:17.556Z,0.60
2018-06-30T17:53:45.777Z,0.80
2018-06-30T17:56:13.931Z,0.73
2018-06-30T17:58:42.332Z,1.00
2018-06-30T18:01:10.740Z,0.93
2018-06-30T18:03:38.965Z,0.90
2018-06-30T18:06:07.166Z,0.60
2018-06-30T18:08:35.388Z,0.90
2018-06-30T18:11:03.847Z,0.70
2018-06-30T18:13:32.083Z,0.90
2018-06-30T18:16:00.295Z,1.00
2018-06-30T18:18:28.489Z,1.00
2018-06-30T18:20:56.740Z,0.80
2018-06-30T18:23:25.994Z,0.60
2018-06-30T18:25:55.164Z,0.80
2018-06-30T18:28:23.390Z,1.00
2018-06-30T18:30:51.534Z,1.20
2018-06-30T18:33:19.678Z,1.10
2018-06-30T18:35:48.030Z,1.00
2018-06-30T18:38:16.375Z,0.90
2018-06-30T18:40:44.572Z,1.20
2018-06-30T18:43:12.760Z,1.17
2018-06-30T18:45:41.006Z,1.27
2018-06-30T18:48:09.222Z,1.10
2018-06-30T18:50:38.090Z,1.13
2018-06-30T18:53:06.267Z,1.00
2018-06-30T18:55:34.655Z,1.50
2018-06-30T18:58:02.816Z,1.27
2018-06-30T19:00:31.170Z,1.77
2018-06-30T19:02:59.440Z,1.87
2018-06-30T19:05:27.631Z,1.83
2018-06-30T19:07:56.017Z,1.43
2018-06-30T19:10:24.507Z,1.10
2018-06-30T19:12:52.718Z,1.27
2018-06-30T19:15:22.781Z,0.90
2018-06-30T19:17:51.116Z,1.10
2018-06-30T19:20:19.360Z,1.00
2018-06-30T19:22:47.649Z,0.90
2018-06-30T19:25:17.046Z,0.60
2018-06-30T19:27:45.251Z,1.10
2018-06-30T19:30:14.492Z,0.90
2018-06-30T19:32:42.724Z,0.87
2018-06-30T19:35:10.880Z,1.10
2018-06-30T19:37:39.128Z,0.93
2018-06-30T19:40:07.315Z,1.17
2018-06-30T19:42:35.480Z,1.30
2018-06-30T19:45:03.937Z,1.33
2018-06-30T19:47:32.225Z,0.87
2018-06-30T19:50:00.603Z,1.17
2018-06-30T19:52:29.068Z,1.27
2018-06-30T19:54:57.268Z,1.37
2018-06-30T19:57:25.653Z,1.20
2018-06-30T19:59:53.892Z,1.47
2018-06-30T20:02:23.528Z,1.40
2018-06-30T20:04:52.097Z,1.37
2018-06-30T20:07:20.504Z,1.40
2018-06-30T20:09:48.849Z,1.33
2018-06-30T20:12:17.114Z,1.40
2018-06-30T20:14:45.430Z,1.20
2018-06-30T20:17:14.722Z,1.10
2018-06-30T20:19:43.129Z,1.15
2018-06-30T20:22:11.413Z,1.13
2018-06-30T20:24:39.654Z,1.72
2018-06-30T20:27:08.056Z,1.50
2018-06-30T20:29:38.625Z,1.72
2018-06-30T20:32:07.001Z,1.60
2018-06-30T20:34:35.246Z,1.40
2018-06-30T20:37:03.596Z,1.52
2018-06-30T20:39:31.909Z,1.27
2018-06-30T20:42:00.123Z,1.80
2018-06-30T20:44:28.436Z,1.65
2018-06-30T20:46:56.706Z,2.37
2018-06-30T20:49:24.976Z,1.80
2018-06-30T20:51:53.142Z,1.92
2018-06-30T20:54:21.445Z,2.47
2018-06-30T20:56:49.749Z,4.65
2018-06-30T20:59:17.983Z,2.35
2018-06-30T21:01:46.181Z,2.15
2018-06-30T21:04:14.325Z,1.98
2018-06-30T21:06:42.616Z,1.77
2018-06-30T21:09:11.604Z,1.70
2018-06-30T21:11:39.872Z,1.90
2018-06-30T21:14:08.164Z,1.98
2018-06-30T21:16:36.316Z,2.10
2018-06-30T21:19:04.700Z,1.72
2018-06-30T21:21:32.928Z,1.95
2018-06-30T21:24:01.099Z,1.87
2018-06-30T21:26:29.297Z,2.37
2018-06-30T21:28:57.499Z,2.10
2018-06-30T21:31:25.721Z,1.82
2018-06-30T21:33:53.896Z,2.00
2018-06-30T21:36:22.075Z,1.70
2018-06-30T21:38:50.207Z,1.80
2018-06-30T21:41:18.390Z,1.57
2018-06-30T21:43:46.727Z,2.55
2018-06-30T21:46:14.950Z,1.70
2018-06-30T21:48:43.088Z,1.50
2018-06-30T21:51:11.369Z,1.85
2018-06-30T21:53:39.600Z,1.72
2018-06-30T21:56:07.830Z,1.40
2018-06-30T21:58:36.013Z,1.50
2018-06-30T22:01:09.690Z,1.50
2018-06-30T22:03:37.804Z,1.60
2018-06-30T22:06:05.956Z,1.50
2018-06-30T22:08:34.275Z,1.70
2018-06-30T22:11:02.709Z,1.80
2018-06-30T22:13:30.786Z,1.55
2018-06-30T22:15:58.952Z,1.40
2018-06-30T22:18:27.262Z,1.47
2018-06-30T22:20:55.382Z,1.60
2018-06-30T22:23:23.609Z,1.10
2018-06-30T22:25:51.788Z,1.05
2018-06-30T22:28:20.067Z,1.32
2018-06-30T22:30:48.229Z,0.95
2018-06-30T22:33:16.525Z,1.00
2018-06-30T22:35:45.965Z,1.65
2018-06-30T22:38:14.121Z,1.10
2018-06-30T22:40:42.328Z,1.02
2018-06-30T22:43:10.483Z,1.20
2018-06-30T22:45:39.067Z,1.45
2018-06-30T22:48:07.333Z,1.12
2018-06-30T22:50:35.538Z,1.25
2018-06-30T22:53:03.817Z,1.35
2018-06-30T22:55:31.964Z,1.50
2018-06-30T22:58:00.164Z,1.32
2018-06-30T23:00:28.524Z,1.50
2018-06-30T23:02:56.715Z,1.27
2018-06-30T23:05:24.868Z,1.47
2018-06-30T23:07:53.060Z,1.20
2018-06-30T23:10:21.272Z,1.27
2018-06-30T23:12:49.487Z,1.40
2018-06-30T23:15:17.634Z,1.25
2018-06-30T23:17:45.790Z,0.98
2018-06-30T23:20:13.907Z,1.20
2018-06-30T23:22:52.440Z,1.22
2018-06-30T23:25:20.776Z,2.15
2018-06-30T23:27:48.986Z,1.00
2018-06-30T23:30:17.190Z,1.10
2018-06-30T23:32:45.519Z,1.40
2018-06-30T23:35:13.893Z,1.40
2018-06-30T23:40:32.431Z,1.20
2018-06-30T23:43:00.607Z,1.00
2018-06-30T23:45:29.534Z,1.00
2018-06-30T23:47:57.676Z,1.32
2018-06-30T23:50:25.829Z,1.60
2018-06-30T23:52:53.965Z,1.40
2018-06-30T23:55:22.096Z,2.22
2018-06-30T23:57:50.219Z,1.75
